Thessalon, Ontario

7:11 PM EST on January 26, 2015 (GMT -0500)
Lafarge Smelter Bay Dock | Change Station
CLOSE
Current Station
Personal Weather Station
Location: Thessalon, ONTARIO
Elevation: 581 ft
Nearby Weather Stations

Elev 581 ft 46.25 °N, 83.54 °W | Updated 23 seconds ago

Clear
Clear
9.9 °F
Feels Like 10 °F
N
2.9
Wind Variable Wind from NE
Gusts 6.0 mph

Today
High -- | Low -- °F
--% Chance of Precip.
Yesterday
High -- | Low -- °F
Precip. -- in
8:04 AM 5:29 PM
Waxing Crescent, 48% visible
Pressure 30.12 in
Visibility 9.0 miles
Clouds Clear
Windchill 10 °F
Dew Point 1 °F
Humidity 68%
Rainfall 0.00 in
Snow Depth Not available.
UV 0 out of 12
Pollen Not available.
Air Quality Not available.
Flu Activity Not available.
METAR CYZE 270000Z AUTO 06003KT 9SM CLR M13/M19 A3006 RMK ICG SLP197

More Conditions Fewer Conditions

Pressure 30.12 in
Visibility 9.0 miles
Clouds Clear
Windchill 10 °F
Dew Point 1 °F
Humidity 68%
Rainfall 0.00 in
Snow Depth Not available.
UV 0 out of 12
Pollen Not available.
Air Quality Not available.
Flu Activity Not available.
METAR CYZE 270000Z AUTO 06003KT 9SM CLR M13/M19 A3006 RMK ICG SLP197

More Conditions Fewer Conditions

10-Day Weather Forecast

Almanac

Astronomy

Jan. 26, 2015 Rise Set
Actual Time
Civil Twilight
Nautical Twilight
Astronomical Twilight
Moon
Length of Visible Light
Length of Day
Tomorrow will be .
, % of the Moon is Illuminated

Today's Extremes

Country Highs Country Lows

Community

WunderPhotos

Upload Photos

1,790,420 photos uploaded!

WunderBlogs® & News

Nearby

Air Quality

  Air Quality AQ Index Pollutant
Not available.

Snow Depth

Station Depth Elevation

Earthquake Activity

City Distance Mag. Time & Date
Minimum magnitude displayed is 2.5.

Coastal Water Temperatures

Place Temperature

Nearby Weather Stations